createdAt,value
2022-09-22T00:00:25.581Z,98.03
2022-09-22T00:01:25.658Z,98.54
2022-09-22T00:02:25.598Z,98.24
2022-09-22T00:03:25.541Z,98.33
2022-09-22T00:04:46.544Z,98.44
2022-09-22T00:05:25.541Z,98.54
2022-09-22T00:06:28.736Z,98.54
2022-09-22T00:07:32.209Z,98.54
2022-09-22T00:08:25.491Z,98.79
2022-09-22T00:09:25.486Z,98.38
2022-09-22T00:10:25.474Z,98.13
2022-09-22T00:11:25.479Z,98.18
2022-09-22T00:12:25.446Z,98.65
2022-09-22T00:13:28.219Z,98.54
2022-09-22T00:14:25.740Z,98.65
2022-09-22T00:15:25.410Z,98.44
2022-09-22T00:16:25.487Z,98.33
2022-09-22T00:17:25.409Z,98.69
2022-09-22T00:18:25.386Z,98.79
2022-09-22T00:19:25.364Z,98.44
2022-09-22T00:20:25.427Z,98.96
2022-09-22T00:21:25.340Z,98.28
2022-09-22T00:22:25.351Z,99.10
2022-09-22T00:23:28.228Z,99.00
2022-09-22T00:24:25.307Z,99.31
2022-09-22T00:25:28.233Z,98.69
2022-09-22T00:26:25.289Z,98.69
2022-09-22T00:27:25.315Z,98.59
2022-09-22T00:28:28.766Z,98.49
2022-09-22T00:29:26.216Z,98.59
2022-09-22T00:30:25.254Z,98.90
2022-09-22T00:31:33.321Z,98.49
2022-09-22T00:32:25.232Z,98.79
2022-09-22T00:33:25.218Z,98.69
2022-09-22T00:34:25.231Z,99.10
2022-09-22T00:35:25.184Z,98.38
2022-09-22T00:36:25.176Z,98.90
2022-09-22T00:37:25.725Z,98.49
2022-09-22T00:38:25.158Z,99.21
2022-09-22T00:39:25.165Z,98.74
2022-09-22T00:40:25.322Z,99.05
2022-09-22T00:41:25.141Z,98.59
2022-09-22T00:42:25.111Z,98.94
2022-09-22T00:43:25.106Z,98.94
2022-09-22T00:44:25.106Z,99.05
2022-09-22T00:45:46.087Z,98.53
2022-09-22T00:46:25.112Z,98.90
2022-09-22T00:47:25.722Z,99.05
2022-09-22T00:48:25.050Z,99.35
2022-09-22T00:49:25.070Z,98.94
2022-09-22T00:50:25.028Z,98.53
2022-09-22T00:51:25.023Z,98.43
2022-09-22T00:52:25.003Z,98.33
2022-09-22T00:53:24.998Z,98.53
2022-09-22T00:54:24.985Z,98.94
2022-09-22T00:55:24.984Z,98.84
2022-09-22T00:56:24.961Z,98.84
2022-09-22T00:57:25.730Z,98.63
2022-09-22T00:58:25.734Z,98.63
2022-09-22T00:59:24.919Z,98.74
2022-09-22T01:00:25.023Z,98.74
2022-09-22T01:01:24.970Z,98.74
2022-09-22T01:02:25.714Z,98.63
2022-09-22T01:03:29.087Z,98.79
2022-09-22T01:04:28.724Z,98.79
2022-09-22T01:05:24.854Z,98.79
2022-09-22T01:06:24.857Z,98.63
2022-09-22T01:07:24.834Z,98.94
2022-09-22T01:08:24.816Z,99.25
2022-09-22T01:09:24.817Z,98.74
2022-09-22T01:10:24.792Z,98.94
2022-09-22T01:11:24.812Z,99.40
2022-09-22T01:12:27.732Z,98.88
2022-09-22T01:13:24.786Z,99.19
2022-09-22T01:14:24.805Z,98.79
2022-09-22T01:15:27.717Z,98.79
2022-09-22T01:16:24.778Z,98.99
2022-09-22T01:17:24.747Z,99.19
2022-09-22T01:18:24.699Z,98.99
2022-09-22T01:19:24.706Z,98.99
2022-09-22T01:20:24.686Z,99.09
2022-09-22T01:21:24.676Z,98.58
2022-09-22T01:22:24.667Z,98.72
2022-09-22T01:23:24.677Z,98.83
2022-09-22T01:24:24.639Z,99.14
2022-09-22T01:25:24.635Z,99.14
2022-09-22T01:26:24.611Z,98.93
2022-09-22T01:27:24.635Z,99.19
2022-09-22T01:28:24.594Z,99.24
2022-09-22T01:29:24.595Z,99.14
2022-09-22T01:30:24.572Z,99.04
2022-09-22T01:31:24.639Z,98.93
2022-09-22T01:32:24.546Z,99.34
2022-09-22T01:33:24.572Z,98.83
2022-09-22T01:34:24.527Z,99.04
2022-09-22T01:35:24.533Z,99.34
2022-09-22T01:36:24.502Z,98.83
2022-09-22T01:37:24.499Z,99.19
2022-09-22T01:38:24.495Z,98.62
2022-09-22T01:39:24.506Z,98.93
2022-09-22T01:40:24.490Z,98.93
2022-09-22T01:41:24.454Z,98.83
2022-09-22T01:42:24.435Z,99.04
2022-09-22T01:43:24.470Z,99.04
2022-09-22T01:44:24.411Z,99.14
2022-09-22T01:45:24.431Z,99.04
2022-09-22T01:46:24.479Z,99.04
2022-09-22T01:47:24.369Z,99.14
2022-09-22T01:48:24.365Z,99.04
2022-09-22T01:49:24.369Z,99.04
2022-09-22T01:50:24.346Z,98.72
2022-09-22T01:51:24.336Z,99.24
2022-09-22T01:52:24.347Z,98.93
2022-09-22T01:53:24.305Z,98.32
2022-09-22T01:54:24.333Z,98.93
2022-09-22T01:55:24.307Z,99.14
2022-09-22T01:56:24.276Z,99.14
2022-09-22T01:57:45.302Z,98.93
2022-09-22T01:58:31.215Z,98.93
2022-09-22T01:59:24.244Z,98.62
2022-09-22T02:00:24.253Z,98.62
2022-09-22T02:01:25.412Z,98.77
2022-09-22T02:02:24.375Z,99.24
2022-09-22T02:03:24.246Z,98.77
2022-09-22T02:04:24.716Z,99.08
2022-09-22T02:05:24.178Z,99.08
2022-09-22T02:06:24.183Z,98.46
2022-09-22T02:07:24.161Z,99.39
2022-09-22T02:08:24.153Z,98.97
2022-09-22T02:09:24.139Z,99.49
2022-09-22T02:10:24.723Z,99.08
2022-09-22T02:11:24.106Z,98.46
2022-09-22T02:12:30.716Z,98.41
2022-09-22T02:13:24.153Z,98.46
2022-09-22T02:14:24.051Z,98.97
2022-09-22T02:15:24.115Z,99.29
2022-09-22T02:16:24.109Z,98.77
2022-09-22T02:17:24.057Z,99.29
2022-09-22T02:18:24.720Z,99.49
2022-09-22T02:19:24.268Z,99.54
2022-09-22T02:20:24.010Z,98.88
2022-09-22T02:21:24.027Z,98.92
2022-09-22T02:22:23.976Z,98.88
2022-09-22T02:23:23.983Z,99.23
2022-09-22T02:24:23.961Z,99.08
2022-09-22T02:25:23.959Z,99.29
2022-09-22T02:26:23.973Z,99.39
2022-09-22T02:27:25.015Z,99.54
2022-09-22T02:28:23.922Z,99.08
2022-09-22T02:29:23.915Z,99.02
2022-09-22T02:30:23.897Z,99.13
2022-09-22T02:31:24.842Z,98.97
2022-09-22T02:32:23.872Z,99.02
2022-09-22T02:33:23.887Z,99.54
2022-09-22T02:34:23.848Z,99.33
2022-09-22T02:35:23.846Z,98.71
2022-09-22T02:36:23.821Z,99.13
2022-09-22T02:37:23.841Z,99.02
2022-09-22T02:38:23.826Z,99.43
2022-09-22T02:39:24.823Z,99.43
2022-09-22T02:40:23.888Z,99.02
2022-09-22T02:41:23.772Z,99.13
2022-09-22T02:42:23.763Z,99.33
2022-09-22T02:43:23.748Z,99.43
2022-09-22T02:44:24.803Z,99.02
2022-09-22T02:45:23.742Z,99.02
2022-09-22T02:46:23.769Z,99.02
2022-09-22T02:47:23.699Z,99.33
2022-09-22T02:48:23.716Z,99.54
2022-09-22T02:49:23.712Z,99.02
2022-09-22T02:50:23.671Z,99.13
2022-09-22T02:51:23.664Z,99.54
2022-09-22T02:52:23.642Z,99.23
2022-09-22T02:53:23.750Z,99.23
2022-09-22T02:54:23.634Z,99.23
2022-09-22T02:55:23.608Z,99.33
2022-09-22T02:56:23.611Z,99.74
2022-09-22T02:57:23.604Z,99.02
2022-09-22T02:58:23.585Z,99.23
2022-09-22T02:59:23.752Z,98.97
2022-09-22T03:00:23.562Z,99.07
2022-09-22T03:01:23.600Z,99.23
2022-09-22T03:02:23.567Z,99.43
2022-09-22T03:03:23.530Z,99.02
2022-09-22T03:04:24.265Z,99.43
2022-09-22T03:05:23.521Z,99.48
2022-09-22T03:06:24.224Z,99.23
2022-09-22T03:07:23.485Z,98.66
2022-09-22T03:08:23.766Z,99.27
2022-09-22T03:09:24.217Z,99.27
2022-09-22T03:10:23.462Z,99.07
2022-09-22T03:11:24.231Z,99.07
2022-09-22T03:12:23.441Z,99.27
2022-09-22T03:13:23.423Z,98.91
2022-09-22T03:14:23.436Z,98.76
2022-09-22T03:15:27.058Z,99.17
2022-09-22T03:16:24.385Z,98.97
2022-09-22T03:17:23.382Z,99.07
2022-09-22T03:18:23.390Z,99.17
2022-09-22T03:19:23.373Z,99.17
2022-09-22T03:20:23.351Z,99.27
2022-09-22T03:21:23.426Z,99.07
2022-09-22T03:22:23.323Z,99.07
2022-09-22T03:23:23.313Z,99.22
2022-09-22T03:24:23.325Z,99.11
2022-09-22T03:25:23.297Z,99.99
2022-09-22T03:26:23.278Z,99.90
2022-09-22T03:27:23.271Z,99.69
2022-09-22T03:28:23.277Z,99.73
2022-09-22T03:29:23.268Z,99.43
2022-09-22T03:30:24.210Z,99.94
2022-09-22T03:31:23.370Z,99.99
2022-09-22T03:32:23.240Z,99.99
2022-09-22T03:33:23.212Z,99.94
2022-09-22T03:34:23.201Z,99.99
2022-09-22T03:35:23.179Z,99.99
2022-09-22T03:36:23.179Z,99.99
2022-09-22T03:37:23.192Z,99.99
2022-09-22T03:38:23.153Z,99.99
2022-09-22T03:39:23.152Z,99.99
2022-09-22T03:40:23.170Z,99.99
2022-09-22T03:41:23.109Z,99.99
2022-09-22T03:42:23.128Z,99.99
2022-09-22T03:43:25.742Z,99.99
2022-09-22T03:44:23.731Z,99.99
2022-09-22T03:45:23.070Z,99.99
2022-09-22T03:46:23.149Z,99.99
2022-09-22T03:47:23.070Z,99.99
2022-09-22T03:48:23.044Z,99.99
2022-09-22T03:49:23.030Z,99.99
2022-09-22T03:50:25.731Z,99.99
2022-09-22T03:51:23.010Z,99.99
2022-09-22T03:52:23.018Z,99.63
2022-09-22T03:53:22.998Z,99.94
2022-09-22T03:54:25.724Z,99.11
2022-09-22T03:55:22.963Z,99.73
2022-09-22T03:56:23.972Z,99.43
2022-09-22T03:57:22.957Z,99.22
2022-09-22T03:58:22.934Z,99.32
2022-09-22T03:59:22.919Z,99.22
2022-09-22T04:00:22.917Z,99.32
2022-09-22T04:01:22.955Z,99.01
2022-09-22T04:02:23.850Z,99.32
2022-09-22T04:03:22.902Z,99.32
2022-09-22T04:04:22.864Z,99.32
2022-09-22T04:05:25.733Z,99.43
2022-09-22T04:06:22.840Z,99.43
2022-09-22T04:07:22.835Z,99.32
2022-09-22T04:08:22.819Z,99.43
2022-09-22T04:09:22.859Z,99.43
2022-09-22T04:10:22.803Z,99.22
2022-09-22T04:11:22.788Z,98.80
2022-09-22T04:12:22.775Z,99.63
2022-09-22T04:13:22.765Z,99.22
2022-09-22T04:14:22.781Z,99.63
2022-09-22T04:15:22.756Z,99.26
2022-09-22T04:16:22.866Z,99.01
2022-09-22T04:17:22.738Z,99.22
2022-09-22T04:18:37.223Z,99.16
2022-09-22T04:19:22.699Z,98.75
2022-09-22T04:20:22.715Z,98.96
2022-09-22T04:21:22.686Z,99.01
2022-09-22T04:22:22.665Z,99.01
2022-09-22T04:23:22.669Z,98.96
2022-09-22T04:24:22.646Z,99.37
2022-09-22T04:25:22.659Z,99.52
2022-09-22T04:26:22.649Z,98.85
2022-09-22T04:27:22.613Z,99.68
2022-09-22T04:28:22.608Z,99.68
2022-09-22T04:29:22.621Z,99.68
2022-09-22T04:30:22.586Z,99.37
2022-09-22T04:31:22.612Z,98.85
2022-09-22T04:32:22.590Z,99.26
2022-09-22T04:33:22.559Z,98.96
2022-09-22T04:34:22.541Z,99.06
2022-09-22T04:35:22.559Z,98.65
2022-09-22T04:36:22.513Z,99.16
2022-09-22T04:37:22.512Z,99.37
2022-09-22T04:38:22.504Z,99.26
2022-09-22T04:39:25.225Z,99.68
2022-09-22T04:40:22.547Z,99.68
2022-09-22T04:41:22.510Z,99.68
2022-09-22T04:42:22.481Z,99.26
2022-09-22T04:43:22.585Z,98.79
2022-09-22T04:44:22.426Z,98.79
2022-09-22T04:45:22.419Z,99.41
2022-09-22T04:46:22.512Z,99.41
2022-09-22T04:47:22.417Z,98.90
2022-09-22T04:48:22.413Z,99.41
2022-09-22T04:49:22.371Z,99.10
2022-09-22T04:50:22.368Z,99.31
2022-09-22T04:51:22.350Z,99.41
2022-09-22T04:52:22.358Z,99.62
2022-09-22T04:53:22.350Z,99.31
2022-09-22T04:54:22.317Z,99.10
2022-09-22T04:55:22.319Z,99.31
2022-09-22T04:56:22.302Z,99.31
2022-09-22T04:57:22.311Z,99.31
2022-09-22T04:58:22.310Z,99.10
2022-09-22T04:59:22.294Z,99.41
2022-09-22T05:00:22.252Z,99.41
2022-09-22T05:01:22.278Z,99.31
2022-09-22T05:02:22.233Z,99.35
2022-09-22T05:03:22.544Z,99.41
2022-09-22T05:04:22.239Z,99.35
2022-09-22T05:05:22.203Z,99.41
2022-09-22T05:06:23.781Z,99.46
2022-09-22T05:07:22.175Z,99.52
2022-09-22T05:08:22.224Z,99.31
2022-09-22T05:09:22.157Z,99.31
2022-09-22T05:10:22.147Z,99.31
2022-09-22T05:11:22.132Z,99.25
2022-09-22T05:12:22.132Z,99.46
2022-09-22T05:13:22.152Z,99.31
2022-09-22T05:14:26.320Z,99.35
2022-09-22T05:15:22.125Z,99.35
2022-09-22T05:16:22.119Z,99.66
2022-09-22T05:17:22.069Z,99.46
2022-09-22T05:18:22.054Z,99.46
2022-09-22T05:19:22.055Z,99.46
2022-09-22T05:20:22.060Z,99.66
2022-09-22T05:21:22.024Z,99.25
2022-09-22T05:22:22.010Z,99.25
2022-09-22T05:23:22.006Z,99.35
2022-09-22T05:24:21.994Z,99.25
2022-09-22T05:25:21.983Z,99.66
2022-09-22T05:26:21.993Z,99.35
2022-09-22T05:27:21.962Z,99.31
2022-09-22T05:28:21.956Z,99.35
2022-09-22T05:29:27.209Z,99.35
2022-09-22T05:30:21.950Z,99.21
2022-09-22T05:31:21.978Z,99.21
2022-09-22T05:32:21.919Z,99.10
2022-09-22T05:33:21.892Z,99.21
2022-09-22T05:34:21.874Z,99.72
2022-09-22T05:35:21.883Z,99.35
2022-09-22T05:36:21.850Z,99.35
2022-09-22T05:37:21.863Z,99.31
2022-09-22T05:38:21.836Z,99.46
2022-09-22T05:39:21.844Z,99.15
2022-09-22T05:40:21.873Z,98.84
2022-09-22T05:41:21.843Z,98.90
2022-09-22T05:42:21.822Z,99.41
2022-09-22T05:43:21.779Z,99.10
2022-09-22T05:44:21.782Z,99.31
2022-09-22T05:45:21.785Z,98.79
2022-09-22T05:46:21.834Z,99.41
2022-09-22T05:47:21.741Z,99.31
2022-09-22T05:48:21.782Z,99.10
2022-09-22T05:49:21.714Z,98.90
2022-09-22T05:50:21.700Z,99.21
2022-09-22T05:51:21.732Z,99.31
2022-09-22T05:52:21.678Z,99.26
2022-09-22T05:53:21.682Z,99.99
2022-09-22T05:54:23.510Z,99.37
2022-09-22T05:55:21.637Z,99.99
2022-09-22T05:56:21.641Z,99.99
2022-09-22T05:57:21.643Z,99.99
2022-09-22T05:58:21.612Z,99.62
2022-09-22T05:59:21.617Z,99.57
2022-09-22T06:00:21.610Z,99.68
2022-09-22T06:01:21.656Z,99.78
2022-09-22T06:02:26.136Z,99.57
2022-09-22T06:03:22.571Z,99.99
2022-09-22T06:04:21.552Z,99.99
2022-09-22T06:05:21.567Z,99.99
2022-09-22T06:06:21.531Z,99.99
2022-09-22T06:07:21.518Z,99.99
2022-09-22T06:08:21.519Z,99.99
2022-09-22T06:09:21.504Z,99.99
2022-09-22T06:10:22.219Z,99.99
2022-09-22T06:11:21.478Z,99.99
2022-09-22T06:12:21.458Z,99.99
2022-09-22T06:13:21.477Z,99.57
2022-09-22T06:14:21.750Z,99.99
2022-09-22T06:15:21.460Z,99.99
2022-09-22T06:16:21.470Z,99.99
2022-09-22T06:17:21.423Z,99.99
2022-09-22T06:18:24.611Z,99.99
2022-09-22T06:19:21.391Z,99.99
2022-09-22T06:20:21.398Z,99.99
2022-09-22T06:21:21.360Z,99.99
2022-09-22T06:22:21.362Z,99.99
2022-09-22T06:23:21.337Z,99.99
2022-09-22T06:24:21.359Z,99.99
2022-09-22T06:25:21.328Z,99.99
2022-09-22T06:26:21.306Z,99.99
2022-09-22T06:27:21.311Z,99.99
2022-09-22T06:28:21.290Z,99.99
2022-09-22T06:29:22.223Z,99.99
2022-09-22T06:30:21.346Z,99.99
2022-09-22T06:31:21.801Z,99.99
2022-09-22T06:32:21.249Z,99.99
2022-09-22T06:33:21.251Z,99.99
2022-09-22T06:34:21.221Z,99.99
2022-09-22T06:35:21.207Z,99.99
2022-09-22T06:36:21.276Z,99.99
2022-09-22T06:37:21.185Z,99.99
2022-09-22T06:38:21.185Z,99.99
2022-09-22T06:39:21.720Z,99.99
2022-09-22T06:40:21.207Z,99.99
2022-09-22T06:41:21.133Z,99.99
2022-09-22T06:42:21.266Z,99.99
2022-09-22T06:43:21.154Z,99.99
2022-09-22T06:44:21.141Z,99.99
2022-09-22T06:45:21.110Z,99.99
2022-09-22T06:46:21.125Z,99.99
2022-09-22T06:47:21.089Z,99.99
2022-09-22T06:48:21.062Z,99.99
2022-09-22T06:49:21.166Z,99.99
2022-09-22T06:50:21.075Z,99.99
2022-09-22T06:51:21.075Z,99.99
2022-09-22T06:52:21.024Z,99.99
2022-09-22T06:53:23.933Z,99.99
2022-09-22T06:54:24.243Z,99.99
2022-09-22T06:55:35.726Z,99.99
2022-09-22T06:56:20.979Z,99.99
2022-09-22T06:57:21.259Z,99.99
2022-09-22T06:58:20.942Z,99.99
2022-09-22T06:59:21.229Z,99.99
2022-09-22T07:00:21.047Z,99.99
2022-09-22T07:01:21.089Z,99.99
2022-09-22T07:02:20.964Z,99.99
2022-09-22T07:03:20.954Z,99.99
2022-09-22T07:04:20.889Z,99.99
2022-09-22T07:05:20.912Z,99.99
2022-09-22T07:06:20.879Z,99.99
2022-09-22T07:07:21.265Z,99.99
2022-09-22T07:08:20.845Z,99.99
2022-09-22T07:09:20.841Z,99.99
2022-09-22T07:10:20.844Z,99.99
2022-09-22T07:11:20.810Z,99.99
2022-09-22T07:12:21.764Z,99.99
2022-09-22T07:13:20.790Z,99.99
2022-09-22T07:14:20.810Z,99.99
2022-09-22T07:15:20.761Z,99.99
2022-09-22T07:16:20.813Z,99.99
2022-09-22T07:17:20.741Z,99.99
2022-09-22T07:18:20.766Z,99.99
2022-09-22T07:19:20.723Z,99.99
2022-09-22T07:20:20.755Z,99.99
2022-09-22T07:21:23.264Z,99.99
2022-09-22T07:22:20.685Z,99.99
2022-09-22T07:23:20.686Z,99.99
2022-09-22T07:24:21.219Z,99.99
2022-09-22T07:25:20.693Z,99.99
2022-09-22T07:26:20.644Z,99.99
2022-09-22T07:27:20.633Z,99.99
2022-09-22T07:28:20.624Z,99.99
2022-09-22T07:29:20.636Z,99.99
2022-09-22T07:30:20.642Z,99.99
2022-09-22T07:31:22.969Z,99.99
2022-09-22T07:32:21.588Z,99.99
2022-09-22T07:33:20.573Z,99.99
2022-09-22T07:34:21.225Z,99.99
2022-09-22T07:35:20.565Z,99.99
2022-09-22T07:36:20.563Z,99.99
2022-09-22T07:37:20.540Z,99.99
2022-09-22T07:38:20.509Z,99.99
2022-09-22T07:39:20.494Z,99.99
2022-09-22T07:40:20.574Z,99.99
2022-09-22T07:41:20.502Z,99.99
2022-09-22T07:42:21.224Z,99.99
2022-09-22T07:43:20.455Z,99.99
2022-09-22T07:44:21.236Z,99.99
2022-09-22T07:45:21.229Z,99.99
2022-09-22T07:46:20.486Z,99.99
2022-09-22T07:47:20.416Z,99.99
2022-09-22T07:48:20.404Z,99.99
2022-09-22T07:49:21.256Z,99.99
2022-09-22T07:50:23.223Z,99.99
2022-09-22T07:51:20.365Z,99.99
2022-09-22T07:52:20.365Z,99.99
2022-09-22T07:53:20.363Z,99.99
2022-09-22T07:54:21.249Z,99.99
2022-09-22T07:55:20.332Z,99.99
2022-09-22T07:56:20.305Z,99.99
2022-09-22T07:57:20.320Z,99.99
2022-09-22T07:58:21.242Z,99.99
2022-09-22T07:59:20.276Z,99.99
2022-09-22T08:00:20.264Z,99.99
2022-09-22T08:01:20.743Z,99.99
2022-09-22T08:02:20.283Z,99.99
2022-09-22T08:03:20.240Z,99.99
2022-09-22T08:04:20.223Z,99.99
2022-09-22T08:05:20.214Z,99.99
2022-09-22T08:06:20.195Z,99.66
2022-09-22T08:07:20.203Z,99.61
2022-09-22T08:08:20.178Z,99.87
2022-09-22T08:09:20.190Z,99.36
2022-09-22T08:10:20.201Z,99.36
2022-09-22T08:11:20.147Z,99.11
2022-09-22T08:12:20.131Z,99.01
2022-09-22T08:13:20.143Z,98.39
2022-09-22T08:14:20.120Z,98.39
2022-09-22T08:15:24.584Z,98.29
2022-09-22T08:16:21.135Z,98.39
2022-09-22T08:17:20.071Z,98.08
2022-09-22T08:18:20.086Z,98.04
2022-09-22T08:19:20.082Z,97.74
2022-09-22T08:20:20.074Z,97.53
2022-09-22T08:21:22.721Z,97.42
2022-09-22T08:22:20.027Z,97.63
2022-09-22T08:23:34.725Z,97.12
2022-09-22T08:24:20.027Z,96.77
2022-09-22T08:25:20.004Z,95.85
2022-09-22T08:26:22.730Z,95.69
2022-09-22T08:27:19.962Z,95.75
2022-09-22T08:28:19.974Z,95.64
2022-09-22T08:29:19.939Z,95.85
2022-09-22T08:30:20.035Z,95.85
2022-09-22T08:31:20.857Z,94.68
2022-09-22T08:32:20.256Z,94.01
2022-09-22T08:33:19.904Z,93.76
2022-09-22T08:34:19.881Z,93.55
2022-09-22T08:35:19.902Z,93.66
2022-09-22T08:36:20.724Z,93.66
2022-09-22T08:37:22.737Z,94.07
2022-09-22T08:38:41.720Z,94.27
2022-09-22T08:39:26.726Z,93.71
2022-09-22T08:40:19.959Z,93.51
2022-09-22T08:41:19.828Z,93.51
2022-09-22T08:42:19.818Z,93.71
2022-09-22T08:43:22.736Z,93.21
2022-09-22T08:44:20.718Z,92.59
2022-09-22T08:45:23.453Z,91.12
2022-09-22T08:46:21.789Z,91.33
2022-09-22T08:47:19.764Z,91.12
2022-09-22T08:48:19.727Z,90.71
2022-09-22T08:49:19.726Z,91.39
2022-09-22T08:50:19.711Z,91.63
2022-09-22T08:51:19.705Z,91.59
2022-09-22T08:52:19.754Z,91.08
2022-09-22T08:53:19.681Z,90.57
2022-09-22T08:54:19.665Z,89.25
2022-09-22T08:55:22.231Z,88.84
2022-09-22T08:56:19.667Z,88.93
2022-09-22T08:57:19.779Z,88.90
2022-09-22T08:58:19.755Z,88.90
2022-09-22T08:59:20.232Z,89.00
2022-09-22T09:00:22.253Z,89.51
2022-09-22T09:01:20.281Z,90.32
2022-09-22T09:02:22.285Z,89.51
2022-09-22T09:03:19.761Z,89.10
2022-09-22T09:04:20.226Z,89.71
2022-09-22T09:05:20.236Z,90.22
2022-09-22T09:06:19.529Z,90.32
2022-09-22T09:07:20.249Z,89.57
2022-09-22T09:08:19.539Z,89.00
2022-09-22T09:09:19.504Z,88.59
2022-09-22T09:10:19.512Z,88.45
2022-09-22T09:11:26.337Z,86.41
2022-09-22T09:12:19.468Z,85.60
2022-09-22T09:13:26.249Z,85.45
2022-09-22T09:14:19.762Z,84.03
2022-09-22T09:15:20.228Z,85.05
2022-09-22T09:16:19.455Z,84.74
2022-09-22T09:17:20.237Z,84.59
2022-09-22T09:18:19.408Z,84.80
2022-09-22T09:19:40.421Z,83.64
2022-09-22T09:20:19.379Z,83.95
2022-09-22T09:21:19.392Z,84.45
2022-09-22T09:22:19.353Z,84.05
2022-09-22T09:23:20.376Z,82.82
2022-09-22T09:25:24.587Z,83.70
2022-09-22T09:26:19.337Z,84.42
2022-09-22T09:27:19.294Z,83.70
2022-09-22T09:28:21.979Z,82.24
2022-09-22T09:29:19.296Z,81.73
2022-09-22T09:30:20.238Z,80.82
2022-09-22T09:31:19.318Z,80.00
2022-09-22T09:32:22.229Z,80.11
2022-09-22T09:33:25.742Z,80.07
2022-09-22T09:34:19.257Z,78.34
2022-09-22T09:35:19.726Z,78.44
2022-09-22T09:36:19.227Z,79.25
2022-09-22T09:37:19.726Z,79.93
2022-09-22T09:38:25.735Z,79.93
2022-09-22T09:39:19.202Z,80.33
2022-09-22T09:40:19.211Z,79.22
2022-09-22T09:41:19.145Z,76.95
2022-09-22T09:42:19.136Z,76.85
2022-09-22T09:43:19.119Z,76.85
2022-09-22T09:44:20.410Z,78.27
2022-09-22T09:45:19.118Z,79.49
2022-09-22T09:46:21.821Z,78.94
2022-09-22T09:47:19.077Z,78.94
2022-09-22T09:48:19.736Z,78.33
2022-09-22T09:49:19.051Z,77.22
2022-09-22T09:50:19.051Z,76.51
2022-09-22T09:51:19.035Z,77.62
2022-09-22T09:52:19.736Z,78.03
2022-09-22T09:53:19.013Z,77.83
2022-09-22T09:54:19.001Z,75.79
2022-09-22T09:55:19.008Z,76.71
2022-09-22T09:56:19.736Z,77.01
2022-09-22T09:57:18.961Z,76.17
2022-09-22T09:58:18.962Z,76.67
2022-09-22T09:59:21.735Z,77.75
2022-09-22T10:00:18.938Z,78.06
2022-09-22T10:01:19.019Z,77.86
2022-09-22T10:02:18.926Z,76.60
2022-09-22T10:03:18.945Z,76.60
2022-09-22T10:04:19.736Z,77.11
2022-09-22T10:05:18.906Z,77.01
2022-09-22T10:06:18.860Z,77.01
2022-09-22T10:07:18.894Z,76.40
2022-09-22T10:08:19.740Z,76.90
2022-09-22T10:09:18.846Z,76.80
2022-09-22T10:10:18.827Z,75.85
2022-09-22T10:11:25.729Z,75.79
2022-09-22T10:12:24.266Z,75.55
2022-09-22T10:13:18.800Z,76.56
2022-09-22T10:14:18.775Z,76.16
2022-09-22T10:15:18.760Z,75.45
2022-09-22T10:16:18.876Z,75.25
2022-09-22T10:17:19.747Z,75.82
2022-09-22T10:18:18.729Z,75.11
2022-09-22T10:19:18.722Z,75.62
2022-09-22T10:20:18.707Z,74.81
2022-09-22T10:21:18.702Z,75.01
2022-09-22T10:22:18.772Z,73.76
2022-09-22T10:23:18.675Z,72.68
2022-09-22T10:24:21.236Z,72.38
2022-09-22T10:25:18.660Z,72.34
2022-09-22T10:26:18.641Z,73.46
2022-09-22T10:27:25.238Z,72.14
2022-09-22T10:28:18.757Z,73.76
2022-09-22T10:29:18.615Z,69.92
2022-09-22T10:30:18.616Z,71.00
2022-09-22T10:31:19.315Z,71.84
2022-09-22T10:32:19.235Z,71.91
2022-09-22T10:33:18.583Z,71.80
2022-09-22T10:34:18.552Z,72.48
2022-09-22T10:35:18.544Z,72.38
2022-09-22T10:36:18.771Z,71.73
2022-09-22T10:37:18.515Z,70.83
2022-09-22T10:38:18.510Z,72.14
2022-09-22T10:39:25.231Z,72.61
2022-09-22T10:40:21.297Z,72.31
2022-09-22T10:41:18.497Z,70.39
2022-09-22T10:42:19.245Z,69.08
2022-09-22T10:43:18.451Z,69.01
2022-09-22T10:44:49.202Z,69.42
2022-09-22T10:45:19.464Z,68.40
2022-09-22T10:46:18.494Z,68.98
2022-09-22T10:47:22.492Z,70.73
2022-09-22T10:49:18.406Z,69.98
2022-09-22T10:50:18.389Z,69.51
2022-09-22T10:51:19.238Z,70.53
2022-09-22T10:52:19.230Z,70.42
2022-09-22T10:53:18.342Z,69.58
2022-09-22T10:54:19.240Z,68.40
2022-09-22T10:55:18.313Z,70.09
2022-09-22T10:56:18.323Z,69.89
2022-09-22T10:57:18.284Z,68.17
2022-09-22T10:58:18.287Z,69.55
2022-09-22T10:59:19.239Z,69.55
2022-09-22T11:00:18.257Z,68.74
2022-09-22T11:01:18.342Z,67.73
2022-09-22T11:02:18.236Z,68.24
2022-09-22T11:03:18.228Z,67.93
2022-09-22T11:04:20.796Z,66.32
2022-09-22T11:05:18.761Z,68.10
2022-09-22T11:06:18.285Z,67.50
2022-09-22T11:07:18.182Z,66.19
2022-09-22T11:08:18.743Z,65.78
2022-09-22T11:09:18.743Z,67.70
2022-09-22T11:10:18.166Z,66.59
2022-09-22T11:11:18.148Z,67.19
2022-09-22T11:12:18.740Z,66.86
2022-09-22T11:13:18.295Z,65.18
2022-09-22T11:14:18.099Z,64.75
2022-09-22T11:15:18.749Z,63.84
2022-09-22T11:16:20.754Z,66.49
2022-09-22T11:17:18.076Z,65.95
2022-09-22T11:18:18.260Z,65.38
2022-09-22T11:19:18.048Z,65.38
2022-09-22T11:20:18.035Z,66.12
2022-09-22T11:21:18.050Z,66.22
2022-09-22T11:22:18.283Z,67.43
2022-09-22T11:23:18.008Z,67.02
2022-09-22T11:24:20.747Z,65.88
2022-09-22T11:25:17.994Z,67.60
2022-09-22T11:26:17.976Z,67.90
2022-09-22T11:27:17.975Z,66.39
2022-09-22T11:28:18.305Z,65.55
2022-09-22T11:29:17.936Z,66.66
2022-09-22T11:30:17.926Z,66.66
2022-09-22T11:31:17.936Z,66.39
2022-09-22T11:32:18.749Z,67.90
2022-09-22T11:33:21.265Z,67.16
2022-09-22T11:34:18.744Z,66.22
2022-09-22T11:35:17.866Z,66.53
2022-09-22T11:36:21.287Z,66.16
2022-09-22T11:37:17.848Z,65.86
2022-09-22T11:38:17.845Z,65.39
2022-09-22T11:39:20.748Z,64.11
2022-09-22T11:40:18.775Z,63.90
2022-09-22T11:41:17.836Z,65.05
2022-09-22T11:42:17.801Z,64.04
2022-09-22T11:43:17.779Z,66.25
2022-09-22T11:44:17.771Z,65.95
2022-09-22T11:45:17.782Z,65.65
2022-09-22T11:46:20.275Z,62.05
2022-09-22T11:47:17.740Z,61.24
2022-09-22T11:48:18.253Z,60.44
2022-09-22T11:49:18.259Z,63.36
2022-09-22T11:50:17.763Z,63.64
2022-09-22T11:51:32.269Z,66.42
2022-09-22T11:52:20.262Z,63.98
2022-09-22T11:53:17.674Z,61.86
2022-09-22T11:54:18.247Z,61.63
2022-09-22T11:55:18.253Z,60.69
2022-09-22T11:56:17.658Z,58.65
2022-09-22T11:57:17.634Z,60.53
2022-09-22T11:58:20.248Z,61.04
2022-09-22T11:59:17.776Z,62.05
2022-09-22T12:00:17.683Z,60.06
2022-09-22T12:01:17.577Z,60.74
2022-09-22T12:02:17.653Z,57.65
2022-09-22T12:03:17.712Z,59.69
2022-09-22T12:04:17.781Z,60.63
2022-09-22T12:05:17.796Z,61.23
2022-09-22T12:06:17.528Z,60.65
2022-09-22T12:07:18.268Z,61.25
2022-09-22T12:08:17.498Z,60.32
2022-09-22T12:09:24.271Z,61.43
2022-09-22T12:10:17.475Z,60.80
2022-09-22T12:11:17.795Z,61.33
2022-09-22T12:12:17.458Z,59.89
2022-09-22T12:13:18.750Z,59.59
2022-09-22T12:14:17.439Z,59.46
2022-09-22T12:15:17.428Z,57.52
2022-09-22T12:16:17.421Z,56.01
2022-09-22T12:17:19.984Z,58.28
2022-09-22T12:18:20.276Z,58.91
2022-09-22T12:19:17.394Z,61.05
2022-09-22T12:20:18.257Z,63.17
2022-09-22T12:21:17.367Z,61.96
2022-09-22T12:22:17.367Z,62.66
2022-09-22T12:23:18.265Z,61.76
2022-09-22T12:24:17.337Z,61.99
2022-09-22T12:25:21.175Z,60.71
2022-09-22T12:26:18.333Z,61.21
2022-09-22T12:27:17.298Z,61.35
2022-09-22T12:28:17.277Z,63.36
2022-09-22T12:29:17.279Z,62.85
2022-09-22T12:30:17.301Z,61.75
2022-09-22T12:31:17.434Z,63.67
2022-09-22T12:32:17.244Z,62.93
2022-09-22T12:33:17.230Z,60.31
2022-09-22T12:34:17.209Z,58.72
2022-09-22T12:35:17.196Z,59.20
2022-09-22T12:36:17.206Z,59.02
2022-09-22T12:37:17.182Z,59.70
2022-09-22T12:38:17.161Z,61.21
2022-09-22T12:39:17.195Z,62.22
2022-09-22T12:40:17.241Z,63.43
2022-09-22T12:41:17.125Z,62.02
2022-09-22T12:42:17.118Z,63.93
2022-09-22T12:43:17.116Z,62.43
2022-09-22T12:44:17.093Z,60.71
2022-09-22T12:45:17.091Z,64.17
2022-09-22T12:46:17.133Z,65.99
2022-09-22T12:47:17.061Z,65.99
2022-09-22T12:48:17.074Z,64.27
2022-09-22T12:49:17.042Z,62.55
2022-09-22T12:50:17.036Z,63.26
2022-09-22T12:51:17.021Z,65.08
2022-09-22T12:52:17.028Z,64.17
2022-09-22T12:53:17.004Z,63.96
2022-09-22T12:54:17.001Z,65.45